sensor_id;sensor_type;location;lat;lon;timestamp;temperature;humidity
14682;DHT22;7429;52.498;13.480;2022-08-19T00:00:23;21.70;99.90
14682;DHT22;7429;52.498;13.480;2022-08-19T00:03:26;21.60;99.90
14682;DHT22;7429;52.498;13.480;2022-08-19T00:06:30;21.60;99.90
14682;DHT22;7429;52.498;13.480;2022-08-19T00:09:33;21.60;99.90
14682;DHT22;7429;52.498;13.480;2022-08-19T00:12:37;21.60;99.90
14682;DHT22;7429;52.498;13.480;2022-08-19T00:15:49;21.70;99.90
14682;DHT22;7429;52.498;13.480;2022-08-19T00:18:52;21.70;99.90
14682;DHT22;7429;52.498;13.480;2022-08-19T00:21:55;21.70;99.90
14682;DHT22;7429;52.498;13.480;2022-08-19T00:24:58;21.70;99.90
14682;DHT22;7429;52.498;13.480;2022-08-19T00:28:03;21.60;99.90
14682;DHT22;7429;52.498;13.480;2022-08-19T00:31:08;21.60;99.90
14682;DHT22;7429;52.498;13.480;2022-08-19T00:34:12;21.60;99.90
14682;DHT22;7429;52.498;13.480;2022-08-19T00:37:16;21.60;99.90
14682;DHT22;7429;52.498;13.480;2022-08-19T00:40:20;21.70;99.90
14682;DHT22;7429;52.498;13.480;2022-08-19T00:43:25;21.60;99.90
14682;DHT22;7429;52.498;13.480;2022-08-19T00:46:30;21.60;99.90
14682;DHT22;7429;52.498;13.480;2022-08-19T00:49:36;21.50;99.90
14682;DHT22;7429;52.498;13.480;2022-08-19T00:52:46;21.50;99.90
14682;DHT22;7429;52.498;13.480;2022-08-19T00:55:52;21.50;99.90
14682;DHT22;7429;52.498;13.480;2022-08-19T00:58:58;21.40;99.90
14682;DHT22;7429;52.498;13.480;2022-08-19T01:02:03;21.40;99.90
14682;DHT22;7429;52.498;13.480;2022-08-19T01:05:09;21.40;99.90
14682;DHT22;7429;52.498;13.480;2022-08-19T01:08:16;21.40;99.90
14682;DHT22;7429;52.498;13.480;2022-08-19T01:11:20;21.50;99.90
14682;DHT22;7429;52.498;13.480;2022-08-19T01:14:24;21.50;99.90
14682;DHT22;7429;52.498;13.480;2022-08-19T01:17:29;21.50;99.90
14682;DHT22;7429;52.498;13.480;2022-08-19T01:20:32;21.50;99.90
14682;DHT22;7429;52.498;13.480;2022-08-19T01:23:37;21.50;99.90
14682;DHT22;7429;52.498;13.480;2022-08-19T01:26:47;21.60;99.90
14682;DHT22;7429;52.498;13.480;2022-08-19T01:29:51;21.60;99.90
14682;DHT22;7429;52.498;13.480;2022-08-19T01:32:55;21.50;99.90
14682;DHT22;7429;52.498;13.480;2022-08-19T01:36:04;21.50;99.90
14682;DHT22;7429;52.498;13.480;2022-08-19T01:39:12;21.50;99.90
14682;DHT22;7429;52.498;13.480;2022-08-19T01:42:17;21.40;99.90
14682;DHT22;7429;52.498;13.480;2022-08-19T01:45:32;21.30;99.90
14682;DHT22;7429;52.498;13.480;2022-08-19T01:48:37;21.20;99.90
14682;DHT22;7429;52.498;13.480;2022-08-19T01:51:42;21.10;99.90
14682;DHT22;7429;52.498;13.480;2022-08-19T01:54:46;21.00;99.90
14682;DHT22;7429;52.498;13.480;2022-08-19T01:57:52;20.90;99.90
14682;DHT22;7429;52.498;13.480;2022-08-19T02:00:57;20.90;99.90
14682;DHT22;7429;52.498;13.480;2022-08-19T02:04:01;20.80;99.90
14682;DHT22;7429;52.498;13.480;2022-08-19T02:07:05;20.70;99.90
14682;DHT22;7429;52.498;13.480;2022-08-19T02:10:15;20.60;99.90
14682;DHT22;7429;52.498;13.480;2022-08-19T02:13:20;20.60;99.90
14682;DHT22;7429;52.498;13.480;2022-08-19T02:16:27;20.60;99.90
14682;DHT22;7429;52.498;13.480;2022-08-19T02:19:32;20.60;99.90
14682;DHT22;7429;52.498;13.480;2022-08-19T02:22:35;20.60;99.90
14682;DHT22;7429;52.498;13.480;2022-08-19T02:25:40;20.60;99.90
14682;DHT22;7429;52.498;13.480;2022-08-19T02:28:43;20.60;99.90
14682;DHT22;7429;52.498;13.480;2022-08-19T02:31:47;20.60;99.90
14682;DHT22;7429;52.498;13.480;2022-08-19T02:34:50;20.60;99.90
14682;DHT22;7429;52.498;13.480;2022-08-19T02:37:53;20.60;99.90
14682;DHT22;7429;52.498;13.480;2022-08-19T02:41:17;20.60;99.90
14682;DHT22;7429;52.498;13.480;2022-08-19T02:44:24;20.60;99.90
14682;DHT22;7429;52.498;13.480;2022-08-19T02:47:32;20.50;99.90
14682;DHT22;7429;52.498;13.480;2022-08-19T02:50:37;20.60;99.90
14682;DHT22;7429;52.498;13.480;2022-08-19T02:53:53;20.60;99.90
14682;DHT22;7429;52.498;13.480;2022-08-19T02:56:57;20.60;99.90
14682;DHT22;7429;52.498;13.480;2022-08-19T03:00:05;20.60;99.90
14682;DHT22;7429;52.498;13.480;2022-08-19T03:03:09;20.60;99.90
14682;DHT22;7429;52.498;13.480;2022-08-19T03:06:15;20.70;99.90
14682;DHT22;7429;52.498;13.480;2022-08-19T03:09:20;20.70;99.90
14682;DHT22;7429;52.498;13.480;2022-08-19T03:12:24;20.60;99.90
14682;DHT22;7429;52.498;13.480;2022-08-19T03:15:27;20.60;99.90
14682;DHT22;7429;52.498;13.480;2022-08-19T03:18:30;20.50;99.90
14682;DHT22;7429;52.498;13.480;2022-08-19T03:21:34;20.50;99.90
14682;DHT22;7429;52.498;13.480;2022-08-19T03:24:38;20.50;99.90
14682;DHT22;7429;52.498;13.480;2022-08-19T03:27:43;20.50;99.90
14682;DHT22;7429;52.498;13.480;2022-08-19T03:30:58;20.40;99.90
14682;DHT22;7429;52.498;13.480;2022-08-19T03:34:02;20.40;99.90
14682;DHT22;7429;52.498;13.480;2022-08-19T03:37:10;20.40;99.90
14682;DHT22;7429;52.498;13.480;2022-08-19T03:40:14;20.30;99.90
14682;DHT22;7429;52.498;13.480;2022-08-19T03:43:19;20.30;99.90
14682;DHT22;7429;52.498;13.480;2022-08-19T03:46:25;20.30;99.90
14682;DHT22;7429;52.498;13.480;2022-08-19T03:49:31;20.30;99.90
14682;DHT22;7429;52.498;13.480;2022-08-19T03:52:37;20.30;99.90
14682;DHT22;7429;52.498;13.480;2022-08-19T03:55:47;20.30;99.90
14682;DHT22;7429;52.498;13.480;2022-08-19T03:58:52;20.30;99.90
14682;DHT22;7429;52.498;13.480;2022-08-19T04:01:56;20.30;99.90
14682;DHT22;7429;52.498;13.480;2022-08-19T04:05:02;20.30;99.90
14682;DHT22;7429;52.498;13.480;2022-08-19T04:08:05;20.30;99.90
14682;DHT22;7429;52.498;13.480;2022-08-19T04:11:16;20.30;99.90
14682;DHT22;7429;52.498;13.480;2022-08-19T04:14:23;20.40;99.90
14682;DHT22;7429;52.498;13.480;2022-08-19T04:17:27;20.40;99.90
14682;DHT22;7429;52.498;13.480;2022-08-19T04:20:30;20.40;99.90
14682;DHT22;7429;52.498;13.480;2022-08-19T04:23:34;20.40;99.90
14682;DHT22;7429;52.498;13.480;2022-08-19T04:26:46;20.50;99.90
14682;DHT22;7429;52.498;13.480;2022-08-19T04:29:50;20.50;99.90
14682;DHT22;7429;52.498;13.480;2022-08-19T04:32:56;20.50;99.90
14682;DHT22;7429;52.498;13.480;2022-08-19T04:35:59;20.50;99.90
14682;DHT22;7429;52.498;13.480;2022-08-19T04:39:05;20.50;99.90
14682;DHT22;7429;52.498;13.480;2022-08-19T04:42:09;20.50;99.90
14682;DHT22;7429;52.498;13.480;2022-08-19T04:45:33;20.50;99.90
14682;DHT22;7429;52.498;13.480;2022-08-19T04:48:45;20.50;99.90
14682;DHT22;7429;52.498;13.480;2022-08-19T04:51:51;20.50;99.90
14682;DHT22;7429;52.498;13.480;2022-08-19T04:54:55;20.50;99.90
14682;DHT22;7429;52.498;13.480;2022-08-19T04:57:58;20.60;99.90
14682;DHT22;7429;52.498;13.480;2022-08-19T05:01:03;20.60;99.90
14682;DHT22;7429;52.498;13.480;2022-08-19T05:04:07;20.70;99.90
14682;DHT22;7429;52.498;13.480;2022-08-19T05:07:10;20.60;99.90
14682;DHT22;7429;52.498;13.480;2022-08-19T05:10:14;20.60;99.90
14682;DHT22;7429;52.498;13.480;2022-08-19T05:13:19;20.70;99.90
14682;DHT22;7429;52.498;13.480;2022-08-19T05:16:24;20.70;99.90
14682;DHT22;7429;52.498;13.480;2022-08-19T05:19:28;20.70;99.90
14682;DHT22;7429;52.498;13.480;2022-08-19T05:22:49;20.70;99.90
14682;DHT22;7429;52.498;13.480;2022-08-19T05:25:52;20.80;99.90
14682;DHT22;7429;52.498;13.480;2022-08-19T05:28:55;20.80;99.90
14682;DHT22;7429;52.498;13.480;2022-08-19T05:32:00;20.90;99.90
14682;DHT22;7429;52.498;13.480;2022-08-19T05:35:04;20.90;99.90
14682;DHT22;7429;52.498;13.480;2022-08-19T05:38:08;21.00;99.90
14682;DHT22;7429;52.498;13.480;2022-08-19T05:41:13;21.00;99.90
14682;DHT22;7429;52.498;13.480;2022-08-19T05:44:18;21.00;99.90
14682;DHT22;7429;52.498;13.480;2022-08-19T05:47:24;21.00;99.90
14682;DHT22;7429;52.498;13.480;2022-08-19T05:50:27;21.00;99.90
14682;DHT22;7429;52.498;13.480;2022-08-19T05:53:31;21.10;99.90
14682;DHT22;7429;52.498;13.480;2022-08-19T05:56:38;21.10;99.90
14682;DHT22;7429;52.498;13.480;2022-08-19T05:59:41;21.10;99.90
14682;DHT22;7429;52.498;13.480;2022-08-19T06:02:48;21.20;99.90
14682;DHT22;7429;52.498;13.480;2022-08-19T06:05:53;21.20;99.90
14682;DHT22;7429;52.498;13.480;2022-08-19T06:08:56;21.30;99.90
14682;DHT22;7429;52.498;13.480;2022-08-19T06:11:59;21.30;99.90
14682;DHT22;7429;52.498;13.480;2022-08-19T06:15:07;21.30;99.90
14682;DHT22;7429;52.498;13.480;2022-08-19T06:18:13;21.30;99.90
14682;DHT22;7429;52.498;13.480;2022-08-19T06:21:18;21.40;99.90
14682;DHT22;7429;52.498;13.480;2022-08-19T06:24:24;21.40;99.90
14682;DHT22;7429;52.498;13.480;2022-08-19T06:27:27;21.40;99.90
14682;DHT22;7429;52.498;13.480;2022-08-19T06:30:32;21.40;99.90
14682;DHT22;7429;52.498;13.480;2022-08-19T06:33:36;21.40;99.90
14682;DHT22;7429;52.498;13.480;2022-08-19T06:36:44;21.50;99.90
14682;DHT22;7429;52.498;13.480;2022-08-19T06:39:49;21.60;99.90
14682;DHT22;7429;52.498;13.480;2022-08-19T06:42:53;21.60;99.90
14682;DHT22;7429;52.498;13.480;2022-08-19T06:45:58;21.60;99.90
14682;DHT22;7429;52.498;13.480;2022-08-19T06:49:04;21.60;99.90
14682;DHT22;7429;52.498;13.480;2022-08-19T06:52:12;21.70;99.90
14682;DHT22;7429;52.498;13.480;2022-08-19T06:55:16;21.70;99.90
14682;DHT22;7429;52.498;13.480;2022-08-19T06:58:19;21.70;99.90
14682;DHT22;7429;52.498;13.480;2022-08-19T07:01:22;21.70;99.90
14682;DHT22;7429;52.498;13.480;2022-08-19T07:04:29;21.80;99.90
14682;DHT22;7429;52.498;13.480;2022-08-19T07:07:34;21.90;99.90
14682;DHT22;7429;52.498;13.480;2022-08-19T07:10:37;21.80;99.90
14682;DHT22;7429;52.498;13.480;2022-08-19T07:13:45;22.00;99.90
14682;DHT22;7429;52.498;13.480;2022-08-19T07:16:56;22.10;99.90
14682;DHT22;7429;52.498;13.480;2022-08-19T07:20:01;22.10;99.90
14682;DHT22;7429;52.498;13.480;2022-08-19T07:23:10;22.20;99.90
14682;DHT22;7429;52.498;13.480;2022-08-19T07:26:21;22.10;99.90
14682;DHT22;7429;52.498;13.480;2022-08-19T07:29:30;22.10;99.90
14682;DHT22;7429;52.498;13.480;2022-08-19T07:32:35;22.10;99.90
14682;DHT22;7429;52.498;13.480;2022-08-19T07:35:40;22.10;99.90
14682;DHT22;7429;52.498;13.480;2022-08-19T07:38:46;22.20;99.90
14682;DHT22;7429;52.498;13.480;2022-08-19T07:41:50;22.30;99.90
14682;DHT22;7429;52.498;13.480;2022-08-19T07:44:53;22.30;99.90
14682;DHT22;7429;52.498;13.480;2022-08-19T07:47:56;22.30;99.90
14682;DHT22;7429;52.498;13.480;2022-08-19T07:51:05;22.30;99.90
14682;DHT22;7429;52.498;13.480;2022-08-19T07:54:09;22.40;99.90
14682;DHT22;7429;52.498;13.480;2022-08-19T07:57:13;22.40;99.90
14682;DHT22;7429;52.498;13.480;2022-08-19T08:00:16;22.50;99.90
14682;DHT22;7429;52.498;13.480;2022-08-19T08:03:26;22.50;99.90
14682;DHT22;7429;52.498;13.480;2022-08-19T08:06:45;22.60;99.90
14682;DHT22;7429;52.498;13.480;2022-08-19T08:10:06;22.60;99.90
14682;DHT22;7429;52.498;13.480;2022-08-19T08:13:21;22.60;99.90
14682;DHT22;7429;52.498;13.480;2022-08-19T08:16:24;22.60;99.90
14682;DHT22;7429;52.498;13.480;2022-08-19T08:19:33;22.60;99.90
14682;DHT22;7429;52.498;13.480;2022-08-19T08:22:37;22.60;99.90
14682;DHT22;7429;52.498;13.480;2022-08-19T08:26:03;22.60;99.90
14682;DHT22;7429;52.498;13.480;2022-08-19T08:29:06;22.70;99.90
14682;DHT22;7429;52.498;13.480;2022-08-19T08:32:13;22.80;99.90
14682;DHT22;7429;52.498;13.480;2022-08-19T08:35:19;23.00;99.90
14682;DHT22;7429;52.498;13.480;2022-08-19T08:38:24;23.10;99.90
14682;DHT22;7429;52.498;13.480;2022-08-19T08:41:43;23.20;99.90
14682;DHT22;7429;52.498;13.480;2022-08-19T08:44:53;23.40;99.90
14682;DHT22;7429;52.498;13.480;2022-08-19T08:48:07;23.60;99.90
14682;DHT22;7429;52.498;13.480;2022-08-19T08:51:29;23.60;99.90
14682;DHT22;7429;52.498;13.480;2022-08-19T08:54:39;23.60;99.90
14682;DHT22;7429;52.498;13.480;2022-08-19T08:58:00;23.70;99.90
14682;DHT22;7429;52.498;13.480;2022-08-19T09:01:04;23.70;99.90
14682;DHT22;7429;52.498;13.480;2022-08-19T09:04:07;23.60;99.90
14682;DHT22;7429;52.498;13.480;2022-08-19T09:07:20;23.50;99.90
14682;DHT22;7429;52.498;13.480;2022-08-19T09:10:40;23.50;99.90
14682;DHT22;7429;52.498;13.480;2022-08-19T09:13:56;23.60;99.90
14682;DHT22;7429;52.498;13.480;2022-08-19T09:17:40;23.70;99.90
14682;DHT22;7429;52.498;13.480;2022-08-19T09:20:43;23.70;99.90
14682;DHT22;7429;52.498;13.480;2022-08-19T09:23:48;23.80;99.90
14682;DHT22;7429;52.498;13.480;2022-08-19T09:26:54;23.90;99.90
14682;DHT22;7429;52.498;13.480;2022-08-19T09:29:58;23.80;99.90
14682;DHT22;7429;52.498;13.480;2022-08-19T09:33:02;23.90;99.90
14682;DHT22;7429;52.498;13.480;2022-08-19T09:36:08;23.90;99.90
14682;DHT22;7429;52.498;13.480;2022-08-19T09:39:22;24.00;99.90
14682;DHT22;7429;52.498;13.480;2022-08-19T09:42:41;24.00;99.90
14682;DHT22;7429;52.498;13.480;2022-08-19T09:45:52;23.90;99.90
14682;DHT22;7429;52.498;13.480;2022-08-19T09:48:57;23.90;99.90
14682;DHT22;7429;52.498;13.480;2022-08-19T09:52:09;24.00;99.90
14682;DHT22;7429;52.498;13.480;2022-08-19T09:55:14;24.10;99.90
14682;DHT22;7429;52.498;13.480;2022-08-19T09:58:20;24.00;99.90
14682;DHT22;7429;52.498;13.480;2022-08-19T10:01:29;24.00;99.90
14682;DHT22;7429;52.498;13.480;2022-08-19T10:04:33;24.10;99.90
14682;DHT22;7429;52.498;13.480;2022-08-19T10:07:54;24.20;99.90
14682;DHT22;7429;52.498;13.480;2022-08-19T10:10:58;24.20;99.90
14682;DHT22;7429;52.498;13.480;2022-08-19T10:14:24;24.20;99.90
14682;DHT22;7429;52.498;13.480;2022-08-19T10:17:27;24.10;99.90
14682;DHT22;7429;52.498;13.480;2022-08-19T10:20:34;24.10;99.90
14682;DHT22;7429;52.498;13.480;2022-08-19T10:23:40;24.00;99.90
14682;DHT22;7429;52.498;13.480;2022-08-19T10:26:46;24.00;99.90
14682;DHT22;7429;52.498;13.480;2022-08-19T10:30:01;24.00;99.90
14682;DHT22;7429;52.498;13.480;2022-08-19T10:33:10;24.20;99.90
14682;DHT22;7429;52.498;13.480;2022-08-19T10:36:17;24.20;99.90
14682;DHT22;7429;52.498;13.480;2022-08-19T10:39:21;24.40;99.90
14682;DHT22;7429;52.498;13.480;2022-08-19T10:42:31;24.60;99.90
14682;DHT22;7429;52.498;13.480;2022-08-19T10:45:35;24.80;99.90
14682;DHT22;7429;52.498;13.480;2022-08-19T10:48:53;24.70;99.90
14682;DHT22;7429;52.498;13.480;2022-08-19T10:51:57;24.70;99.90
14682;DHT22;7429;52.498;13.480;2022-08-19T10:55:23;24.60;99.90
14682;DHT22;7429;52.498;13.480;2022-08-19T10:58:44;24.50;99.90
14682;DHT22;7429;52.498;13.480;2022-08-19T11:01:49;24.40;99.90
14682;DHT22;7429;52.498;13.480;2022-08-19T11:04:56;24.30;99.90
14682;DHT22;7429;52.498;13.480;2022-08-19T11:08:05;24.20;99.90
14682;DHT22;7429;52.498;13.480;2022-08-19T11:11:24;24.10;99.90
14682;DHT22;7429;52.498;13.480;2022-08-19T11:14:27;24.20;99.90
14682;DHT22;7429;52.498;13.480;2022-08-19T11:17:37;24.10;99.90
14682;DHT22;7429;52.498;13.480;2022-08-19T11:20:42;24.00;99.90
14682;DHT22;7429;52.498;13.480;2022-08-19T11:23:46;23.90;99.90
14682;DHT22;7429;52.498;13.480;2022-08-19T11:26:52;23.80;99.90
14682;DHT22;7429;52.498;13.480;2022-08-19T11:30:00;23.70;99.90
14682;DHT22;7429;52.498;13.480;2022-08-19T11:33:09;23.70;99.90
14682;DHT22;7429;52.498;13.480;2022-08-19T11:36:12;23.60;99.90
14682;DHT22;7429;52.498;13.480;2022-08-19T11:39:19;23.70;99.90
14682;DHT22;7429;52.498;13.480;2022-08-19T11:42:23;23.80;99.90
14682;DHT22;7429;52.498;13.480;2022-08-19T11:45:43;24.00;99.90
14682;DHT22;7429;52.498;13.480;2022-08-19T11:48:49;24.10;99.90
14682;DHT22;7429;52.498;13.480;2022-08-19T11:51:52;24.00;99.90
14682;DHT22;7429;52.498;13.480;2022-08-19T11:54:55;23.90;99.90
14682;DHT22;7429;52.498;13.480;2022-08-19T11:57:58;24.00;99.90
14682;DHT22;7429;52.498;13.480;2022-08-19T12:01:05;24.00;99.90
14682;DHT22;7429;52.498;13.480;2022-08-19T12:04:10;24.10;99.90
14682;DHT22;7429;52.498;13.480;2022-08-19T12:07:13;24.20;99.90
14682;DHT22;7429;52.498;13.480;2022-08-19T12:10:16;24.20;99.90
14682;DHT22;7429;52.498;13.480;2022-08-19T12:13:24;24.20;99.90
14682;DHT22;7429;52.498;13.480;2022-08-19T12:16:27;24.10;99.90
14682;DHT22;7429;52.498;13.480;2022-08-19T12:19:36;24.30;99.90
14682;DHT22;7429;52.498;13.480;2022-08-19T12:22:41;24.50;99.90
14682;DHT22;7429;52.498;13.480;2022-08-19T12:25:46;24.60;99.90
14682;DHT22;7429;52.498;13.480;2022-08-19T12:28:52;24.50;99.90
14682;DHT22;7429;52.498;13.480;2022-08-19T12:31:56;24.50;99.90
14682;DHT22;7429;52.498;13.480;2022-08-19T12:35:05;24.40;99.90
14682;DHT22;7429;52.498;13.480;2022-08-19T12:38:11;24.30;99.90
14682;DHT22;7429;52.498;13.480;2022-08-19T12:41:16;24.40;99.90
14682;DHT22;7429;52.498;13.480;2022-08-19T12:44:21;24.50;99.90
14682;DHT22;7429;52.498;13.480;2022-08-19T12:47:32;24.50;99.90
14682;DHT22;7429;52.498;13.480;2022-08-19T12:50:41;24.40;99.90
14682;DHT22;7429;52.498;13.480;2022-08-19T12:53:45;24.40;99.90
14682;DHT22;7429;52.498;13.480;2022-08-19T12:56:48;24.40;99.90
14682;DHT22;7429;52.498;13.480;2022-08-19T12:59:52;24.50;99.90
14682;DHT22;7429;52.498;13.480;2022-08-19T13:02:56;24.60;99.90
14682;DHT22;7429;52.498;13.480;2022-08-19T13:06:00;24.70;99.90
14682;DHT22;7429;52.498;13.480;2022-08-19T13:09:03;24.70;99.90
14682;DHT22;7429;52.498;13.480;2022-08-19T13:12:07;24.60;99.90
14682;DHT22;7429;52.498;13.480;2022-08-19T13:15:15;24.60;99.90
14682;DHT22;7429;52.498;13.480;2022-08-19T13:18:24;24.50;99.90
14682;DHT22;7429;52.498;13.480;2022-08-19T13:21:29;24.50;99.90
14682;DHT22;7429;52.498;13.480;2022-08-19T13:24:32;24.60;99.90
14682;DHT22;7429;52.498;13.480;2022-08-19T13:27:36;24.70;99.90
14682;DHT22;7429;52.498;13.480;2022-08-19T13:30:39;24.60;99.90
14682;DHT22;7429;52.498;13.480;2022-08-19T13:34:00;24.70;99.90
14682;DHT22;7429;52.498;13.480;2022-08-19T13:37:05;24.70;99.90
14682;DHT22;7429;52.498;13.480;2022-08-19T13:40:12;24.70;99.90
14682;DHT22;7429;52.498;13.480;2022-08-19T13:43:18;24.80;99.90
14682;DHT22;7429;52.498;13.480;2022-08-19T13:46:24;24.80;99.90
14682;DHT22;7429;52.498;13.480;2022-08-19T13:49:28;24.80;99.90
14682;DHT22;7429;52.498;13.480;2022-08-19T13:52:33;24.80;99.90
14682;DHT22;7429;52.498;13.480;2022-08-19T13:55:37;24.80;99.90
14682;DHT22;7429;52.498;13.480;2022-08-19T13:58:41;24.70;99.90
14682;DHT22;7429;52.498;13.480;2022-08-19T14:01:45;24.70;99.90
14682;DHT22;7429;52.498;13.480;2022-08-19T14:04:48;24.60;99.90
14682;DHT22;7429;52.498;13.480;2022-08-19T14:07:52;24.60;99.90
14682;DHT22;7429;52.498;13.480;2022-08-19T14:10:55;24.60;99.90
14682;DHT22;7429;52.498;13.480;2022-08-19T14:13:58;24.60;99.90
14682;DHT22;7429;52.498;13.480;2022-08-19T14:17:01;24.50;99.90
14682;DHT22;7429;52.498;13.480;2022-08-19T14:20:07;24.40;99.90
14682;DHT22;7429;52.498;13.480;2022-08-19T14:23:19;24.40;99.90
14682;DHT22;7429;52.498;13.480;2022-08-19T14:26:23;24.40;99.90
14682;DHT22;7429;52.498;13.480;2022-08-19T14:29:27;24.30;99.90
14682;DHT22;7429;52.498;13.480;2022-08-19T14:32:30;24.20;99.90
14682;DHT22;7429;52.498;13.480;2022-08-19T14:35:34;24.20;99.90
14682;DHT22;7429;52.498;13.480;2022-08-19T14:38:38;24.20;99.90
14682;DHT22;7429;52.498;13.480;2022-08-19T14:41:42;24.30;99.90
14682;DHT22;7429;52.498;13.480;2022-08-19T14:44:45;24.40;99.90
14682;DHT22;7429;52.498;13.480;2022-08-19T14:47:48;24.40;99.90
14682;DHT22;7429;52.498;13.480;2022-08-19T14:50:51;24.40;99.90
14682;DHT22;7429;52.498;13.480;2022-08-19T14:53:56;24.40;99.90
14682;DHT22;7429;52.498;13.480;2022-08-19T14:56:59;24.30;99.90
14682;DHT22;7429;52.498;13.480;2022-08-19T15:00:03;24.30;99.90
14682;DHT22;7429;52.498;13.480;2022-08-19T15:03:07;24.30;99.90
14682;DHT22;7429;52.498;13.480;2022-08-19T15:06:10;24.30;99.90
14682;DHT22;7429;52.498;13.480;2022-08-19T15:09:15;24.30;99.90
14682;DHT22;7429;52.498;13.480;2022-08-19T15:12:18;24.20;99.90
14682;DHT22;7429;52.498;13.480;2022-08-19T15:15:23;24.20;99.90
14682;DHT22;7429;52.498;13.480;2022-08-19T15:18:26;24.20;99.90
14682;DHT22;7429;52.498;13.480;2022-08-19T15:21:29;24.10;99.90
14682;DHT22;7429;52.498;13.480;2022-08-19T15:24:35;24.00;99.90
14682;DHT22;7429;52.498;13.480;2022-08-19T15:27:48;24.00;99.90
14682;DHT22;7429;52.498;13.480;2022-08-19T15:30:53;23.90;99.90
14682;DHT22;7429;52.498;13.480;2022-08-19T15:33:56;23.90;99.90
14682;DHT22;7429;52.498;13.480;2022-08-19T15:37:00;23.90;99.90
14682;DHT22;7429;52.498;13.480;2022-08-19T15:40:07;23.90;99.90
14682;DHT22;7429;52.498;13.480;2022-08-19T15:43:11;23.90;99.90
14682;DHT22;7429;52.498;13.480;2022-08-19T15:46:16;23.80;99.90
14682;DHT22;7429;52.498;13.480;2022-08-19T15:49:20;23.80;99.90
14682;DHT22;7429;52.498;13.480;2022-08-19T15:52:24;23.80;99.90
14682;DHT22;7429;52.498;13.480;2022-08-19T15:55:31;23.80;99.90
14682;DHT22;7429;52.498;13.480;2022-08-19T15:58:36;23.80;99.90
14682;DHT22;7429;52.498;13.480;2022-08-19T16:01:57;23.80;99.90
14682;DHT22;7429;52.498;13.480;2022-08-19T16:05:19;23.70;99.90
14682;DHT22;7429;52.498;13.480;2022-08-19T16:08:41;23.70;99.90
14682;DHT22;7429;52.498;13.480;2022-08-19T16:11:51;23.70;99.90
14682;DHT22;7429;52.498;13.480;2022-08-19T16:14:57;23.60;99.90
14682;DHT22;7429;52.498;13.480;2022-08-19T16:18:01;23.50;99.90
14682;DHT22;7429;52.498;13.480;2022-08-19T16:21:05;23.40;99.90
14682;DHT22;7429;52.498;13.480;2022-08-19T16:24:11;23.40;99.90
14682;DHT22;7429;52.498;13.480;2022-08-19T16:27:16;23.40;99.90
14682;DHT22;7429;52.498;13.480;2022-08-19T16:30:19;23.40;99.90
14682;DHT22;7429;52.498;13.480;2022-08-19T16:33:22;23.40;99.90
14682;DHT22;7429;52.498;13.480;2022-08-19T16:36:25;23.40;99.90
14682;DHT22;7429;52.498;13.480;2022-08-19T16:39:29;23.40;99.90
14682;DHT22;7429;52.498;13.480;2022-08-19T16:42:34;23.40;99.90
14682;DHT22;7429;52.498;13.480;2022-08-19T16:45:37;23.40;99.90
14682;DHT22;7429;52.498;13.480;2022-08-19T16:48:44;23.40;99.90
14682;DHT22;7429;52.498;13.480;2022-08-19T16:51:47;23.40;99.90
14682;DHT22;7429;52.498;13.480;2022-08-19T16:54:51;23.40;99.90
14682;DHT22;7429;52.498;13.480;2022-08-19T16:57:55;23.40;99.90
14682;DHT22;7429;52.498;13.480;2022-08-19T17:01:00;23.40;99.90
14682;DHT22;7429;52.498;13.480;2022-08-19T17:04:05;23.40;99.90
14682;DHT22;7429;52.498;13.480;2022-08-19T17:07:08;23.40;99.90
14682;DHT22;7429;52.498;13.480;2022-08-19T17:10:11;23.40;99.90
14682;DHT22;7429;52.498;13.480;2022-08-19T17:13:16;23.30;99.90
14682;DHT22;7429;52.498;13.480;2022-08-19T17:16:21;23.30;99.90
14682;DHT22;7429;52.498;13.480;2022-08-19T17:19:26;23.20;99.90
14682;DHT22;7429;52.498;13.480;2022-08-19T17:22:29;23.10;99.90
14682;DHT22;7429;52.498;13.480;2022-08-19T17:25:33;23.10;99.90
14682;DHT22;7429;52.498;13.480;2022-08-19T17:28:38;23.00;99.90
14682;DHT22;7429;52.498;13.480;2022-08-19T17:31:43;23.00;99.90
14682;DHT22;7429;52.498;13.480;2022-08-19T17:34:47;23.00;99.90
14682;DHT22;7429;52.498;13.480;2022-08-19T17:37:50;23.00;99.90
14682;DHT22;7429;52.498;13.480;2022-08-19T17:40:54;23.00;99.90
14682;DHT22;7429;52.498;13.480;2022-08-19T17:44:04;22.90;99.90
14682;DHT22;7429;52.498;13.480;2022-08-19T17:47:08;22.90;99.90
14682;DHT22;7429;52.498;13.480;2022-08-19T17:50:11;22.90;99.90
14682;DHT22;7429;52.498;13.480;2022-08-19T17:53:15;22.90;99.90
14682;DHT22;7429;52.498;13.480;2022-08-19T17:56:19;22.80;99.90
14682;DHT22;7429;52.498;13.480;2022-08-19T17:59:25;22.90;99.90
14682;DHT22;7429;52.498;13.480;2022-08-19T18:02:31;22.90;99.90
14682;DHT22;7429;52.498;13.480;2022-08-19T18:05:42;22.90;99.90
14682;DHT22;7429;52.498;13.480;2022-08-19T18:08:45;22.90;99.90
14682;DHT22;7429;52.498;13.480;2022-08-19T18:11:50;22.80;99.90
14682;DHT22;7429;52.498;13.480;2022-08-19T18:14:57;22.70;99.90
14682;DHT22;7429;52.498;13.480;2022-08-19T18:18:00;22.70;99.90
14682;DHT22;7429;52.498;13.480;2022-08-19T18:21:15;22.60;99.90
14682;DHT22;7429;52.498;13.480;2022-08-19T18:24:18;22.50;99.90
14682;DHT22;7429;52.498;13.480;2022-08-19T18:27:21;22.50;99.90
14682;DHT22;7429;52.498;13.480;2022-08-19T18:30:28;22.50;99.90
14682;DHT22;7429;52.498;13.480;2022-08-19T18:33:34;22.50;99.90
14682;DHT22;7429;52.498;13.480;2022-08-19T18:36:45;22.40;99.90
14682;DHT22;7429;52.498;13.480;2022-08-19T18:39:54;22.40;99.90
14682;DHT22;7429;52.498;13.480;2022-08-19T18:43:15;22.40;99.90
14682;DHT22;7429;52.498;13.480;2022-08-19T18:46:38;22.40;99.90
14682;DHT22;7429;52.498;13.480;2022-08-19T18:49:58;22.30;99.90
14682;DHT22;7429;52.498;13.480;2022-08-19T18:53:12;22.30;99.90
14682;DHT22;7429;52.498;13.480;2022-08-19T18:56:18;22.30;99.90
14682;DHT22;7429;52.498;13.480;2022-08-19T18:59:26;22.40;99.90
14682;DHT22;7429;52.498;13.480;2022-08-19T19:02:35;22.40;99.90
14682;DHT22;7429;52.498;13.480;2022-08-19T19:05:40;22.30;99.90
14682;DHT22;7429;52.498;13.480;2022-08-19T19:08:45;22.30;99.90
14682;DHT22;7429;52.498;13.480;2022-08-19T19:11:50;22.30;99.90
14682;DHT22;7429;52.498;13.480;2022-08-19T19:14:56;22.30;99.90
14682;DHT22;7429;52.498;13.480;2022-08-19T19:18:01;22.30;99.90
14682;DHT22;7429;52.498;13.480;2022-08-19T19:21:04;22.30;99.90
14682;DHT22;7429;52.498;13.480;2022-08-19T19:24:08;22.20;99.90
14682;DHT22;7429;52.498;13.480;2022-08-19T19:27:16;22.30;99.90
14682;DHT22;7429;52.498;13.480;2022-08-19T19:30:21;22.20;99.90
14682;DHT22;7429;52.498;13.480;2022-08-19T19:33:27;22.20;99.90
14682;DHT22;7429;52.498;13.480;2022-08-19T19:36:30;22.20;99.90